sensor_id;sensor_type;location;lat;lon;timestamp;P1;durP1;ratioP1;P2;durP2;ratioP2
2388;SDS011;1205;47.984;7.668;2023-04-25T00:01:46;2.60;;;2.40;;
2388;SDS011;1205;47.984;7.668;2023-04-25T00:04:12;5.07;;;2.40;;
2388;SDS011;1205;47.984;7.668;2023-04-25T00:06:38;7.50;;;2.80;;
2388;SDS011;1205;47.984;7.668;2023-04-25T00:09:04;4.10;;;2.50;;
2388;SDS011;1205;47.984;7.668;2023-04-25T00:11:35;7.80;;;2.77;;
2388;SDS011;1205;47.984;7.668;2023-04-25T00:14:01;2.87;;;2.67;;
2388;SDS011;1205;47.984;7.668;2023-04-25T00:16:28;3.40;;;2.13;;
2388;SDS011;1205;47.984;7.668;2023-04-25T00:18:55;6.20;;;2.80;;
2388;SDS011;1205;47.984;7.668;2023-04-25T00:21:21;5.47;;;2.70;;
2388;SDS011;1205;47.984;7.668;2023-04-25T00:23:49;4.57;;;2.10;;
2388;SDS011;1205;47.984;7.668;2023-04-25T00:26:15;2.73;;;2.40;;
2388;SDS011;1205;47.984;7.668;2023-04-25T00:28:40;2.80;;;2.40;;
2388;SDS011;1205;47.984;7.668;2023-04-25T00:31:06;5.30;;;2.20;;
2388;SDS011;1205;47.984;7.668;2023-04-25T00:33:32;6.87;;;2.30;;
2388;SDS011;1205;47.984;7.668;2023-04-25T00:35:57;4.43;;;2.60;;
2388;SDS011;1205;47.984;7.668;2023-04-25T00:38:23;10.30;;;2.70;;
2388;SDS011;1205;47.984;7.668;2023-04-25T00:40:48;6.63;;;2.93;;
2388;SDS011;1205;47.984;7.668;2023-04-25T00:43:14;4.40;;;2.17;;
2388;SDS011;1205;47.984;7.668;2023-04-25T00:45:40;2.30;;;2.10;;
2388;SDS011;1205;47.984;7.668;2023-04-25T00:48:05;7.13;;;2.90;;
2388;SDS011;1205;47.984;7.668;2023-04-25T00:50:32;4.23;;;2.40;;
2388;SDS011;1205;47.984;7.668;2023-04-25T00:52:59;5.40;;;2.83;;
2388;SDS011;1205;47.984;7.668;2023-04-25T00:55:25;2.70;;;2.30;;
2388;SDS011;1205;47.984;7.668;2023-04-25T00:57:50;3.20;;;2.90;;
2388;SDS011;1205;47.984;7.668;2023-04-25T01:00:16;5.90;;;2.97;;
2388;SDS011;1205;47.984;7.668;2023-04-25T01:02:43;9.50;;;3.20;;
2388;SDS011;1205;47.984;7.668;2023-04-25T01:05:09;9.30;;;2.73;;
2388;SDS011;1205;47.984;7.668;2023-04-25T01:07:35;7.13;;;2.67;;
2388;SDS011;1205;47.984;7.668;2023-04-25T01:10:01;5.90;;;3.40;;
2388;SDS011;1205;47.984;7.668;2023-04-25T01:12:27;4.27;;;3.70;;
2388;SDS011;1205;47.984;7.668;2023-04-25T01:14:53;7.70;;;4.00;;
2388;SDS011;1205;47.984;7.668;2023-04-25T01:17:19;7.83;;;4.57;;
2388;SDS011;1205;47.984;7.668;2023-04-25T01:19:44;4.43;;;3.47;;
2388;SDS011;1205;47.984;7.668;2023-04-25T01:22:12;8.70;;;3.77;;
2388;SDS011;1205;47.984;7.668;2023-04-25T01:24:39;4.67;;;3.50;;
2388;SDS011;1205;47.984;7.668;2023-04-25T01:27:04;5.43;;;3.80;;
2388;SDS011;1205;47.984;7.668;2023-04-25T01:29:31;9.23;;;4.07;;
2388;SDS011;1205;47.984;7.668;2023-04-25T01:31:57;8.63;;;3.33;;
2388;SDS011;1205;47.984;7.668;2023-04-25T01:34:24;5.50;;;3.40;;
2388;SDS011;1205;47.984;7.668;2023-04-25T01:36:50;5.87;;;3.37;;
2388;SDS011;1205;47.984;7.668;2023-04-25T01:39:16;8.40;;;4.70;;
2388;SDS011;1205;47.984;7.668;2023-04-25T01:41:43;7.43;;;4.50;;
2388;SDS011;1205;47.984;7.668;2023-04-25T01:44:09;7.60;;;3.47;;
2388;SDS011;1205;47.984;7.668;2023-04-25T01:46:35;5.00;;;3.60;;
2388;SDS011;1205;47.984;7.668;2023-04-25T01:49:01;7.07;;;3.63;;
2388;SDS011;1205;47.984;7.668;2023-04-25T01:51:26;7.60;;;4.23;;
2388;SDS011;1205;47.984;7.668;2023-04-25T01:53:52;5.40;;;2.80;;
2388;SDS011;1205;47.984;7.668;2023-04-25T01:56:19;8.63;;;3.23;;
2388;SDS011;1205;47.984;7.668;2023-04-25T01:58:45;5.40;;;3.70;;
2388;SDS011;1205;47.984;7.668;2023-04-25T02:01:11;6.13;;;3.67;;
2388;SDS011;1205;47.984;7.668;2023-04-25T02:03:37;6.83;;;3.13;;
2388;SDS011;1205;47.984;7.668;2023-04-25T02:06:02;4.43;;;3.10;;
2388;SDS011;1205;47.984;7.668;2023-04-25T02:08:28;12.10;;;3.93;;
2388;SDS011;1205;47.984;7.668;2023-04-25T02:10:55;5.97;;;3.70;;
2388;SDS011;1205;47.984;7.668;2023-04-25T02:13:20;4.83;;;3.77;;
2388;SDS011;1205;47.984;7.668;2023-04-25T02:15:46;5.80;;;3.70;;
2388;SDS011;1205;47.984;7.668;2023-04-25T02:18:12;7.03;;;3.73;;
2388;SDS011;1205;47.984;7.668;2023-04-25T02:20:38;6.30;;;3.70;;
2388;SDS011;1205;47.984;7.668;2023-04-25T02:23:03;4.97;;;4.10;;
2388;SDS011;1205;47.984;7.668;2023-04-25T02:25:29;14.33;;;3.60;;
2388;SDS011;1205;47.984;7.668;2023-04-25T02:27:54;6.87;;;4.17;;
2388;SDS011;1205;47.984;7.668;2023-04-25T02:30:20;10.33;;;3.60;;
2388;SDS011;1205;47.984;7.668;2023-04-25T02:32:46;4.33;;;3.60;;
2388;SDS011;1205;47.984;7.668;2023-04-25T02:35:11;6.10;;;3.20;;
2388;SDS011;1205;47.984;7.668;2023-04-25T02:37:37;6.90;;;3.60;;
2388;SDS011;1205;47.984;7.668;2023-04-25T02:40:04;11.17;;;3.97;;
2388;SDS011;1205;47.984;7.668;2023-04-25T02:42:30;6.87;;;3.70;;
2388;SDS011;1205;47.984;7.668;2023-04-25T02:44:56;6.07;;;3.87;;
2388;SDS011;1205;47.984;7.668;2023-04-25T02:47:21;5.47;;;4.13;;
2388;SDS011;1205;47.984;7.668;2023-04-25T02:49:47;13.30;;;3.50;;
2388;SDS011;1205;47.984;7.668;2023-04-25T02:52:13;7.07;;;3.70;;
2388;SDS011;1205;47.984;7.668;2023-04-25T02:54:39;5.10;;;3.13;;
2388;SDS011;1205;47.984;7.668;2023-04-25T02:57:05;4.77;;;3.70;;
2388;SDS011;1205;47.984;7.668;2023-04-25T02:59:31;5.57;;;3.37;;
2388;SDS011;1205;47.984;7.668;2023-04-25T03:01:57;8.00;;;3.93;;
2388;SDS011;1205;47.984;7.668;2023-04-25T03:04:23;8.83;;;4.03;;
2388;SDS011;1205;47.984;7.668;2023-04-25T03:06:49;7.70;;;4.47;;
2388;SDS011;1205;47.984;7.668;2023-04-25T03:09:15;9.17;;;4.30;;
2388;SDS011;1205;47.984;7.668;2023-04-25T03:11:41;7.00;;;3.60;;
2388;SDS011;1205;47.984;7.668;2023-04-25T03:14:07;8.80;;;4.17;;
2388;SDS011;1205;47.984;7.668;2023-04-25T03:16:32;9.57;;;4.17;;
2388;SDS011;1205;47.984;7.668;2023-04-25T03:18:58;9.43;;;3.20;;
2388;SDS011;1205;47.984;7.668;2023-04-25T03:21:24;11.27;;;4.00;;
2388;SDS011;1205;47.984;7.668;2023-04-25T03:23:50;10.13;;;4.17;;
2388;SDS011;1205;47.984;7.668;2023-04-25T03:26:15;7.60;;;3.77;;
2388;SDS011;1205;47.984;7.668;2023-04-25T03:28:41;10.90;;;3.50;;
2388;SDS011;1205;47.984;7.668;2023-04-25T03:31:07;4.70;;;4.30;;
2388;SDS011;1205;47.984;7.668;2023-04-25T03:33:32;7.63;;;3.50;;
2388;SDS011;1205;47.984;7.668;2023-04-25T03:35:58;5.50;;;3.57;;
2388;SDS011;1205;47.984;7.668;2023-04-25T03:38:23;4.13;;;3.43;;
2388;SDS011;1205;47.984;7.668;2023-04-25T03:40:49;6.17;;;3.03;;
2388;SDS011;1205;47.984;7.668;2023-04-25T03:43:15;7.03;;;3.30;;
2388;SDS011;1205;47.984;7.668;2023-04-25T03:45:41;8.20;;;3.90;;
2388;SDS011;1205;47.984;7.668;2023-04-25T03:48:07;11.27;;;4.20;;
2388;SDS011;1205;47.984;7.668;2023-04-25T03:50:33;5.13;;;3.37;;
2388;SDS011;1205;47.984;7.668;2023-04-25T03:52:58;5.57;;;3.53;;
2388;SDS011;1205;47.984;7.668;2023-04-25T03:55:24;6.77;;;3.30;;
2388;SDS011;1205;47.984;7.668;2023-04-25T03:57:49;6.33;;;3.20;;
2388;SDS011;1205;47.984;7.668;2023-04-25T04:00:15;5.60;;;3.43;;
2388;SDS011;1205;47.984;7.668;2023-04-25T04:02:41;3.40;;;3.10;;
2388;SDS011;1205;47.984;7.668;2023-04-25T04:05:06;8.03;;;3.87;;
2388;SDS011;1205;47.984;7.668;2023-04-25T04:07:32;6.27;;;3.20;;
2388;SDS011;1205;47.984;7.668;2023-04-25T04:09:58;4.20;;;3.70;;
2388;SDS011;1205;47.984;7.668;2023-04-25T04:12:24;5.63;;;3.30;;
2388;SDS011;1205;47.984;7.668;2023-04-25T04:14:50;9.53;;;4.00;;
2388;SDS011;1205;47.984;7.668;2023-04-25T04:17:15;4.53;;;3.53;;
2388;SDS011;1205;47.984;7.668;2023-04-25T04:19:41;7.40;;;3.70;;
2388;SDS011;1205;47.984;7.668;2023-04-25T04:22:06;6.83;;;3.73;;
2388;SDS011;1205;47.984;7.668;2023-04-25T04:24:32;7.80;;;3.50;;
2388;SDS011;1205;47.984;7.668;2023-04-25T04:26:58;6.03;;;3.87;;
2388;SDS011;1205;47.984;7.668;2023-04-25T04:29:24;9.10;;;3.80;;
2388;SDS011;1205;47.984;7.668;2023-04-25T04:31:50;6.03;;;3.43;;
2388;SDS011;1205;47.984;7.668;2023-04-25T04:34:17;9.40;;;3.30;;
2388;SDS011;1205;47.984;7.668;2023-04-25T04:36:43;4.07;;;3.53;;
2388;SDS011;1205;47.984;7.668;2023-04-25T04:39:11;10.53;;;4.03;;
2388;SDS011;1205;47.984;7.668;2023-04-25T04:41:37;5.87;;;3.93;;
2388;SDS011;1205;47.984;7.668;2023-04-25T04:44:02;4.90;;;3.40;;
2388;SDS011;1205;47.984;7.668;2023-04-25T04:46:28;4.80;;;4.03;;
2388;SDS011;1205;47.984;7.668;2023-04-25T04:48:56;10.07;;;3.93;;
2388;SDS011;1205;47.984;7.668;2023-04-25T04:51:21;5.07;;;3.20;;
2388;SDS011;1205;47.984;7.668;2023-04-25T04:53:47;8.50;;;3.53;;
2388;SDS011;1205;47.984;7.668;2023-04-25T04:56:12;3.83;;;3.50;;
2388;SDS011;1205;47.984;7.668;2023-04-25T04:58:38;13.73;;;4.30;;
2388;SDS011;1205;47.984;7.668;2023-04-25T05:01:03;7.47;;;3.87;;
2388;SDS011;1205;47.984;7.668;2023-04-25T05:03:29;5.50;;;3.30;;
2388;SDS011;1205;47.984;7.668;2023-04-25T05:05:54;7.83;;;3.60;;
2388;SDS011;1205;47.984;7.668;2023-04-25T05:08:20;7.47;;;5.13;;
2388;SDS011;1205;47.984;7.668;2023-04-25T05:10:46;8.00;;;3.63;;
2388;SDS011;1205;47.984;7.668;2023-04-25T05:13:11;7.73;;;4.30;;
2388;SDS011;1205;47.984;7.668;2023-04-25T05:15:37;7.30;;;3.90;;
2388;SDS011;1205;47.984;7.668;2023-04-25T05:18:02;6.83;;;3.53;;
2388;SDS011;1205;47.984;7.668;2023-04-25T05:20:28;6.47;;;3.13;;
2388;SDS011;1205;47.984;7.668;2023-04-25T05:22:54;6.60;;;3.13;;
2388;SDS011;1205;47.984;7.668;2023-04-25T05:25:19;3.33;;;2.77;;
2388;SDS011;1205;47.984;7.668;2023-04-25T05:27:45;5.10;;;2.90;;
2388;SDS011;1205;47.984;7.668;2023-04-25T05:30:10;4.43;;;3.00;;
2388;SDS011;1205;47.984;7.668;2023-04-25T05:32:36;8.77;;;3.93;;
2388;SDS011;1205;47.984;7.668;2023-04-25T05:35:02;9.77;;;3.60;;
2388;SDS011;1205;47.984;7.668;2023-04-25T05:37:27;7.60;;;3.57;;
2388;SDS011;1205;47.984;7.668;2023-04-25T05:39:55;5.37;;;3.17;;
2388;SDS011;1205;47.984;7.668;2023-04-25T05:42:21;11.93;;;3.10;;
2388;SDS011;1205;47.984;7.668;2023-04-25T05:44:46;5.33;;;2.90;;
2388;SDS011;1205;47.984;7.668;2023-04-25T05:47:12;2.73;;;2.50;;
2388;SDS011;1205;47.984;7.668;2023-04-25T05:49:38;8.83;;;3.00;;
2388;SDS011;1205;47.984;7.668;2023-04-25T05:52:03;5.53;;;3.80;;
2388;SDS011;1205;47.984;7.668;2023-04-25T05:54:29;2.33;;;1.50;;
2388;SDS011;1205;47.984;7.668;2023-04-25T05:56:56;2.73;;;1.53;;
2388;SDS011;1205;47.984;7.668;2023-04-25T05:59:22;3.03;;;2.63;;
2388;SDS011;1205;47.984;7.668;2023-04-25T06:01:47;5.37;;;3.17;;
2388;SDS011;1205;47.984;7.668;2023-04-25T06:04:13;2.97;;;1.43;;
2388;SDS011;1205;47.984;7.668;2023-04-25T06:06:38;1.33;;;1.23;;
2388;SDS011;1205;47.984;7.668;2023-04-25T06:09:04;2.97;;;1.40;;
2388;SDS011;1205;47.984;7.668;2023-04-25T06:11:29;1.10;;;1.10;;
2388;SDS011;1205;47.984;7.668;2023-04-25T06:13:55;1.73;;;1.50;;
2388;SDS011;1205;47.984;7.668;2023-04-25T06:16:20;2.73;;;1.63;;
2388;SDS011;1205;47.984;7.668;2023-04-25T06:18:46;2.40;;;1.37;;
2388;SDS011;1205;47.984;7.668;2023-04-25T06:21:12;1.40;;;1.30;;
2388;SDS011;1205;47.984;7.668;2023-04-25T06:23:37;1.30;;;1.30;;
2388;SDS011;1205;47.984;7.668;2023-04-25T06:26:03;3.43;;;2.00;;
2388;SDS011;1205;47.984;7.668;2023-04-25T06:28:28;1.80;;;1.70;;
2388;SDS011;1205;47.984;7.668;2023-04-25T06:30:54;2.07;;;1.90;;
2388;SDS011;1205;47.984;7.668;2023-04-25T06:33:19;1.20;;;1.20;;
2388;SDS011;1205;47.984;7.668;2023-04-25T06:35:46;1.70;;;1.60;;
2388;SDS011;1205;47.984;7.668;2023-04-25T06:38:12;3.00;;;2.70;;
2388;SDS011;1205;47.984;7.668;2023-04-25T06:40:37;1.40;;;1.30;;
2388;SDS011;1205;47.984;7.668;2023-04-25T06:43:03;1.63;;;1.63;;
2388;SDS011;1205;47.984;7.668;2023-04-25T06:45:28;2.00;;;1.50;;
2388;SDS011;1205;47.984;7.668;2023-04-25T06:47:54;4.33;;;2.00;;
2388;SDS011;1205;47.984;7.668;2023-04-25T06:50:20;2.63;;;1.73;;
2388;SDS011;1205;47.984;7.668;2023-04-25T06:52:45;3.73;;;1.43;;
2388;SDS011;1205;47.984;7.668;2023-04-25T06:55:11;1.70;;;1.57;;
2388;SDS011;1205;47.984;7.668;2023-04-25T06:57:36;2.60;;;1.60;;
2388;SDS011;1205;47.984;7.668;2023-04-25T07:00:02;1.60;;;1.50;;
2388;SDS011;1205;47.984;7.668;2023-04-25T07:02:30;1.80;;;1.70;;
2388;SDS011;1205;47.984;7.668;2023-04-25T07:04:56;1.53;;;1.53;;
2388;SDS011;1205;47.984;7.668;2023-04-25T07:07:24;2.83;;;1.50;;
2388;SDS011;1205;47.984;7.668;2023-04-25T07:09:50;2.40;;;1.70;;
2388;SDS011;1205;47.984;7.668;2023-04-25T07:12:16;1.40;;;1.40;;
2388;SDS011;1205;47.984;7.668;2023-04-25T07:14:41;1.63;;;1.20;;
2388;SDS011;1205;47.984;7.668;2023-04-25T07:17:07;1.63;;;1.50;;
2388;SDS011;1205;47.984;7.668;2023-04-25T07:19:32;1.37;;;1.23;;
2388;SDS011;1205;47.984;7.668;2023-04-25T07:21:58;1.23;;;1.00;;
2388;SDS011;1205;47.984;7.668;2023-04-25T07:24:24;2.00;;;1.00;;
2388;SDS011;1205;47.984;7.668;2023-04-25T07:26:49;3.17;;;1.80;;
2388;SDS011;1205;47.984;7.668;2023-04-25T07:29:15;2.30;;;1.90;;
2388;SDS011;1205;47.984;7.668;2023-04-25T07:31:41;1.93;;;1.50;;
2388;SDS011;1205;47.984;7.668;2023-04-25T07:34:06;2.80;;;1.83;;
2388;SDS011;1205;47.984;7.668;2023-04-25T07:36:32;2.53;;;1.47;;
2388;SDS011;1205;47.984;7.668;2023-04-25T07:38:58;2.53;;;2.43;;
2388;SDS011;1205;47.984;7.668;2023-04-25T07:41:23;4.20;;;3.80;;
2388;SDS011;1205;47.984;7.668;2023-04-25T07:43:49;4.00;;;3.80;;
2388;SDS011;1205;47.984;7.668;2023-04-25T07:46:14;9.00;;;6.17;;
2388;SDS011;1205;47.984;7.668;2023-04-25T07:48:40;5.13;;;4.63;;
2388;SDS011;1205;47.984;7.668;2023-04-25T07:51:06;5.20;;;4.50;;
2388;SDS011;1205;47.984;7.668;2023-04-25T07:53:32;3.53;;;3.27;;
2388;SDS011;1205;47.984;7.668;2023-04-25T07:55:59;2.90;;;2.70;;
2388;SDS011;1205;47.984;7.668;2023-04-25T07:58:25;2.60;;;2.00;;
2388;SDS011;1205;47.984;7.668;2023-04-25T08:00:50;1.70;;;1.60;;
2388;SDS011;1205;47.984;7.668;2023-04-25T08:03:16;1.80;;;1.17;;
2388;SDS011;1205;47.984;7.668;2023-04-25T08:05:42;2.30;;;1.50;;
2388;SDS011;1205;47.984;7.668;2023-04-25T08:08:07;3.33;;;1.60;;
2388;SDS011;1205;47.984;7.668;2023-04-25T08:10:33;3.60;;;1.90;;
2388;SDS011;1205;47.984;7.668;2023-04-25T08:12:59;4.10;;;2.10;;
2388;SDS011;1205;47.984;7.668;2023-04-25T08:15:25;96.40;;;8.17;;
2388;SDS011;1205;47.984;7.668;2023-04-25T08:17:51;3.87;;;1.83;;
2388;SDS011;1205;47.984;7.668;2023-04-25T08:20:16;1.40;;;1.40;;
2388;SDS011;1205;47.984;7.668;2023-04-25T08:22:42;1.30;;;1.30;;
2388;SDS011;1205;47.984;7.668;2023-04-25T08:25:08;2.20;;;1.60;;
2388;SDS011;1205;47.984;7.668;2023-04-25T08:27:33;3.00;;;1.87;;
2388;SDS011;1205;47.984;7.668;2023-04-25T08:29:59;1.77;;;1.67;;
2388;SDS011;1205;47.984;7.668;2023-04-25T08:32:25;3.63;;;1.73;;
2388;SDS011;1205;47.984;7.668;2023-04-25T08:34:51;2.70;;;1.70;;
2388;SDS011;1205;47.984;7.668;2023-04-25T08:37:19;1.83;;;1.60;;
2388;SDS011;1205;47.984;7.668;2023-04-25T08:39:45;2.23;;;1.70;;
2388;SDS011;1205;47.984;7.668;2023-04-25T08:42:13;1.47;;;1.47;;
2388;SDS011;1205;47.984;7.668;2023-04-25T08:44:40;2.73;;;1.87;;
2388;SDS011;1205;47.984;7.668;2023-04-25T08:47:06;1.50;;;1.50;;
2388;SDS011;1205;47.984;7.668;2023-04-25T08:49:32;1.47;;;1.37;;
2388;SDS011;1205;47.984;7.668;2023-04-25T08:52:02;2.23;;;1.50;;
2388;SDS011;1205;47.984;7.668;2023-04-25T08:54:30;1.57;;;1.47;;
2388;SDS011;1205;47.984;7.668;2023-04-25T08:56:57;1.40;;;1.30;;
2388;SDS011;1205;47.984;7.668;2023-04-25T08:59:29;1.60;;;1.20;;
2388;SDS011;1205;47.984;7.668;2023-04-25T09:01:55;1.60;;;1.40;;
2388;SDS011;1205;47.984;7.668;2023-04-25T09:04:22;2.00;;;1.43;;
2388;SDS011;1205;47.984;7.668;2023-04-25T09:06:48;5.13;;;1.07;;
2388;SDS011;1205;47.984;7.668;2023-04-25T09:09:13;1.90;;;0.80;;
2388;SDS011;1205;47.984;7.668;2023-04-25T09:11:39;0.80;;;0.80;;
2388;SDS011;1205;47.984;7.668;2023-04-25T09:14:16;1.23;;;1.10;;
2388;SDS011;1205;47.984;7.668;2023-04-25T09:19:32;1.40;;;1.30;;
2388;SDS011;1205;47.984;7.668;2023-04-25T09:22:02;1.03;;;1.03;;
2388;SDS011;1205;47.984;7.668;2023-04-25T09:24:38;1.33;;;1.33;;
2388;SDS011;1205;47.984;7.668;2023-04-25T09:27:10;1.73;;;1.13;;
2388;SDS011;1205;47.984;7.668;2023-04-25T09:29:38;1.43;;;0.90;;
2388;SDS011;1205;47.984;7.668;2023-04-25T09:34:39;1.20;;;1.10;;
2388;SDS011;1205;47.984;7.668;2023-04-25T09:37:07;1.63;;;1.23;;
2388;SDS011;1205;47.984;7.668;2023-04-25T09:39:38;0.90;;;0.90;;
2388;SDS011;1205;47.984;7.668;2023-04-25T09:42:04;1.10;;;1.00;;
2388;SDS011;1205;47.984;7.668;2023-04-25T09:44:30;1.57;;;1.30;;
2388;SDS011;1205;47.984;7.668;2023-04-25T09:46:56;1.00;;;1.00;;
2388;SDS011;1205;47.984;7.668;2023-04-25T09:49:22;5.20;;;0.93;;
2388;SDS011;1205;47.984;7.668;2023-04-25T09:51:55;4.43;;;1.10;;
2388;SDS011;1205;47.984;7.668;2023-04-25T09:54:22;4.30;;;1.03;;
2388;SDS011;1205;47.984;7.668;2023-04-25T09:56:51;3.00;;;1.00;;
2388;SDS011;1205;47.984;7.668;2023-04-25T09:59:19;3.13;;;1.70;;
2388;SDS011;1205;47.984;7.668;2023-04-25T10:01:46;2.20;;;1.77;;
2388;SDS011;1205;47.984;7.668;2023-04-25T10:04:16;1.33;;;1.17;;
2388;SDS011;1205;47.984;7.668;2023-04-25T10:06:45;4.23;;;1.40;;
2388;SDS011;1205;47.984;7.668;2023-04-25T10:09:14;8.50;;;1.47;;
2388;SDS011;1205;47.984;7.668;2023-04-25T10:11:40;2.63;;;1.63;;
2388;SDS011;1205;47.984;7.668;2023-04-25T10:14:06;10.97;;;2.07;;
2388;SDS011;1205;47.984;7.668;2023-04-25T10:16:32;1.60;;;1.50;;
2388;SDS011;1205;47.984;7.668;2023-04-25T10:18:58;1.37;;;1.37;;
2388;SDS011;1205;47.984;7.668;2023-04-25T10:21:24;1.30;;;1.30;;
2388;SDS011;1205;47.984;7.668;2023-04-25T10:23:53;1.10;;;1.10;;
2388;SDS011;1205;47.984;7.668;2023-04-25T10:26:19;10.30;;;2.50;;
2388;SDS011;1205;47.984;7.668;2023-04-25T10:29:01;2.73;;;1.40;;
2388;SDS011;1205;47.984;7.668;2023-04-25T10:31:29;1.37;;;1.37;;
2388;SDS011;1205;47.984;7.668;2023-04-25T10:33:55;1.33;;;1.13;;
2388;SDS011;1205;47.984;7.668;2023-04-25T10:36:22;2.10;;;1.33;;
2388;SDS011;1205;47.984;7.668;2023-04-25T10:38:48;1.17;;;1.07;;
2388;SDS011;1205;47.984;7.668;2023-04-25T10:41:17;1.30;;;1.13;;
2388;SDS011;1205;47.984;7.668;2023-04-25T10:43:45;0.97;;;0.97;;
2388;SDS011;1205;47.984;7.668;2023-04-25T10:48:45;1.43;;;1.40;;
2388;SDS011;1205;47.984;7.668;2023-04-25T10:51:23;2.27;;;2.07;;
2388;SDS011;1205;47.984;7.668;2023-04-25T10:56:28;31.07;;;5.50;;
2388;SDS011;1205;47.984;7.668;2023-04-25T10:59:09;2.57;;;2.00;;
2388;SDS011;1205;47.984;7.668;2023-04-25T11:01:42;2.47;;;2.20;;
2388;SDS011;1205;47.984;7.668;2023-04-25T11:09:18;3.53;;;1.97;;
2388;SDS011;1205;47.984;7.668;2023-04-25T11:11:52;2.50;;;2.30;;
2388;SDS011;1205;47.984;7.668;2023-04-25T11:14:19;5.00;;;2.27;;
2388;SDS011;1205;47.984;7.668;2023-04-25T11:16:45;4.30;;;1.60;;
2388;SDS011;1205;47.984;7.668;2023-04-25T11:19:11;2.37;;;2.27;;
2388;SDS011;1205;47.984;7.668;2023-04-25T11:21:36;1.90;;;1.80;;
2388;SDS011;1205;47.984;7.668;2023-04-25T11:24:02;1.87;;;1.70;;
2388;SDS011;1205;47.984;7.668;2023-04-25T11:26:28;5.00;;;1.90;;
2388;SDS011;1205;47.984;7.668;2023-04-25T11:28:59;2.13;;;1.50;;
2388;SDS011;1205;47.984;7.668;2023-04-25T11:31:28;1.40;;;1.30;;
2388;SDS011;1205;47.984;7.668;2023-04-25T11:33:54;2.90;;;1.40;;
2388;SDS011;1205;47.984;7.668;2023-04-25T11:36:22;2.07;;;1.80;;
2388;SDS011;1205;47.984;7.668;2023-04-25T11:38:50;2.20;;;2.10;;
2388;SDS011;1205;47.984;7.668;2023-04-25T11:41:16;3.27;;;1.97;;
2388;SDS011;1205;47.984;7.668;2023-04-25T11:43:43;1.60;;;1.50;;
2388;SDS011;1205;47.984;7.668;2023-04-25T11:46:09;2.10;;;2.00;;
2388;SDS011;1205;47.984;7.668;2023-04-25T11:48:38;2.10;;;2.00;;
2388;SDS011;1205;47.984;7.668;2023-04-25T11:51:05;2.80;;;1.93;;
2388;SDS011;1205;47.984;7.668;2023-04-25T11:53:30;1.50;;;1.33;;
2388;SDS011;1205;47.984;7.668;2023-04-25T11:55:56;4.00;;;2.60;;
2388;SDS011;1205;47.984;7.668;2023-04-25T11:58:22;3.00;;;2.30;;
2388;SDS011;1205;47.984;7.668;2023-04-25T12:00:48;3.83;;;2.30;;
2388;SDS011;1205;47.984;7.668;2023-04-25T12:03:13;1.90;;;1.80;;
2388;SDS011;1205;47.984;7.668;2023-04-25T12:05:39;3.13;;;1.63;;
2388;SDS011;1205;47.984;7.668;2023-04-25T12:08:11;4.30;;;2.87;;
2388;SDS011;1205;47.984;7.668;2023-04-25T12:10:41;19.30;;;2.37;;
2388;SDS011;1205;47.984;7.668;2023-04-25T12:13:21;5.47;;;2.00;;
2388;SDS011;1205;47.984;7.668;2023-04-25T12:15:46;5.70;;;1.70;;
2388;SDS011;1205;47.984;7.668;2023-04-25T12:18:12;2.03;;;1.10;;
2388;SDS011;1205;47.984;7.668;2023-04-25T12:20:38;5.30;;;1.80;;
2388;SDS011;1205;47.984;7.668;2023-04-25T12:23:07;2.87;;;2.30;;
2388;SDS011;1205;47.984;7.668;2023-04-25T12:25:36;1.43;;;1.40;;
2388;SDS011;1205;47.984;7.668;2023-04-25T12:28:22;1.80;;;1.70;;
2388;SDS011;1205;47.984;7.668;2023-04-25T12:33:23;1.10;;;1.10;;
2388;SDS011;1205;47.984;7.668;2023-04-25T12:35:49;1.70;;;1.60;;
2388;SDS011;1205;47.984;7.668;2023-04-25T12:38:24;1.90;;;1.00;;
2388;SDS011;1205;47.984;7.668;2023-04-25T12:40:50;1.60;;;1.30;;
2388;SDS011;1205;47.984;7.668;2023-04-25T12:43:16;1.30;;;1.20;;
2388;SDS011;1205;47.984;7.668;2023-04-25T12:45:42;4.33;;;1.40;;
2388;SDS011;1205;47.984;7.668;2023-04-25T12:48:09;1.20;;;1.20;;
2388;SDS011;1205;47.984;7.668;2023-04-25T12:50:35;1.27;;;1.20;;
2388;SDS011;1205;47.984;7.668;2023-04-25T12:53:00;2.57;;;1.20;;
2388;SDS011;1205;47.984;7.668;2023-04-25T12:55:26;2.10;;;1.27;;
2388;SDS011;1205;47.984;7.668;2023-04-25T12:57:52;1.37;;;1.27;;
2388;SDS011;1205;47.984;7.668;2023-04-25T13:00:18;2.30;;;1.17;;
2388;SDS011;1205;47.984;7.668;2023-04-25T13:02:45;2.40;;;1.00;;
2388;SDS011;1205;47.984;7.668;2023-04-25T13:05:14;1.40;;;0.90;;
2388;SDS011;1205;47.984;7.668;2023-04-25T13:07:40;1.43;;;1.33;;
2388;SDS011;1205;47.984;7.668;2023-04-25T13:10:06;1.57;;;1.10;;
2388;SDS011;1205;47.984;7.668;2023-04-25T13:12:32;1.17;;;1.00;;
2388;SDS011;1205;47.984;7.668;2023-04-25T13:14:58;0.93;;;0.93;;
2388;SDS011;1205;47.984;7.668;2023-04-25T13:17:23;0.83;;;0.80;;
2388;SDS011;1205;47.984;7.668;2023-04-25T13:19:49;2.63;;;1.10;;
2388;SDS011;1205;47.984;7.668;2023-04-25T13:22:15;6.87;;;1.07;;
2388;SDS011;1205;47.984;7.668;2023-04-25T13:24:42;1.10;;;1.00;;
2388;SDS011;1205;47.984;7.668;2023-04-25T13:27:07;0.80;;;0.80;;
2388;SDS011;1205;47.984;7.668;2023-04-25T13:29:33;0.80;;;0.80;;
2388;SDS011;1205;47.984;7.668;2023-04-25T13:32:00;1.07;;;1.03;;
2388;SDS011;1205;47.984;7.668;2023-04-25T13:34:26;2.47;;;0.80;;
2388;SDS011;1205;47.984;7.668;2023-04-25T13:36:53;1.47;;;1.30;;
2388;SDS011;1205;47.984;7.668;2023-04-25T13:39:18;1.60;;;1.10;;
2388;SDS011;1205;47.984;7.668;2023-04-25T13:41:44;0.87;;;0.87;;
2388;SDS011;1205;47.984;7.668;2023-04-25T13:44:10;1.27;;;0.93;;
2388;SDS011;1205;47.984;7.668;2023-04-25T13:46:36;0.90;;;0.87;;
2388;SDS011;1205;47.984;7.668;2023-04-25T13:49:02;1.10;;;1.00;;
2388;SDS011;1205;47.984;7.668;2023-04-25T13:51:28;2.20;;;1.47;;
2388;SDS011;1205;47.984;7.668;2023-04-25T13:53:53;2.10;;;1.20;;
2388;SDS011;1205;47.984;7.668;2023-04-25T13:56:19;1.93;;;1.00;;
2388;SDS011;1205;47.984;7.668;2023-04-25T13:58:45;1.23;;;1.13;;
2388;SDS011;1205;47.984;7.668;2023-04-25T14:01:11;1.07;;;1.03;;
2388;SDS011;1205;47.984;7.668;2023-04-25T14:03:36;1.43;;;1.37;;
2388;SDS011;1205;47.984;7.668;2023-04-25T14:06:02;1.37;;;1.30;;
2388;SDS011;1205;47.984;7.668;2023-04-25T14:08:29;3.30;;;1.30;;
2388;SDS011;1205;47.984;7.668;2023-04-25T14:10:55;1.20;;;1.20;;
2388;SDS011;1205;47.984;7.668;2023-04-25T14:13:20;1.30;;;1.30;;
2388;SDS011;1205;47.984;7.668;2023-04-25T14:15:46;1.20;;;1.10;;
2388;SDS011;1205;47.984;7.668;2023-04-25T14:18:12;1.63;;;1.53;;
2388;SDS011;1205;47.984;7.668;2023-04-25T14:20:37;1.93;;;1.80;;
2388;SDS011;1205;47.984;7.668;2023-04-25T14:23:03;1.30;;;1.20;;
2388;SDS011;1205;47.984;7.668;2023-04-25T14:25:29;18.57;;;1.57;;
2388;SDS011;1205;47.984;7.668;2023-04-25T14:27:55;1.17;;;1.17;;
2388;SDS011;1205;47.984;7.668;2023-04-25T14:30:21;1.67;;;1.43;;
2388;SDS011;1205;47.984;7.668;2023-04-25T14:32:47;7.93;;;3.47;;
2388;SDS011;1205;47.984;7.668;2023-04-25T14:35:14;4.27;;;2.90;;
2388;SDS011;1205;47.984;7.668;2023-04-25T14:37:40;5.70;;;2.30;;
2388;SDS011;1205;47.984;7.668;2023-04-25T14:40:06;5.83;;;4.10;;
2388;SDS011;1205;47.984;7.668;2023-04-25T14:42:35;7.17;;;5.37;;
2388;SDS011;1205;47.984;7.668;2023-04-25T14:45:01;5.50;;;3.53;;
2388;SDS011;1205;47.984;7.668;2023-04-25T14:47:27;1.00;;;1.00;;
2388;SDS011;1205;47.984;7.668;2023-04-25T14:49:53;3.20;;;1.50;;
2388;SDS011;1205;47.984;7.668;2023-04-25T14:52:19;1.30;;;1.20;;
2388;SDS011;1205;47.984;7.668;2023-04-25T14:54:46;2.10;;;1.90;;
2388;SDS011;1205;47.984;7.668;2023-04-25T14:57:11;2.10;;;2.00;;
2388;SDS011;1205;47.984;7.668;2023-04-25T14:59:37;2.13;;;2.03;;
2388;SDS011;1205;47.984;7.668;2023-04-25T15:02:03;1.83;;;1.83;;
2388;SDS011;1205;47.984;7.668;2023-04-25T15:04:29;2.37;;;2.17;;
2388;SDS011;1205;47.984;7.668;2023-04-25T15:06:55;1.23;;;1.23;;
2388;SDS011;1205;47.984;7.668;2023-04-25T15:09:20;2.17;;;1.93;;
2388;SDS011;1205;47.984;7.668;2023-04-25T15:11:48;2.70;;;2.50;;
2388;SDS011;1205;47.984;7.668;2023-04-25T15:14:13;1.80;;;1.80;;
2388;SDS011;1205;47.984;7.668;2023-04-25T15:16:39;2.60;;;2.40;;
2388;SDS011;1205;47.984;7.668;2023-04-25T15:19:04;2.57;;;1.73;;
2388;SDS011;1205;47.984;7.668;2023-04-25T15:21:30;1.93;;;1.83;;
2388;SDS011;1205;47.984;7.668;2023-04-25T15:23:56;2.53;;;1.73;;
2388;SDS011;1205;47.984;7.668;2023-04-25T15:26:22;1.90;;;1.80;;
2388;SDS011;1205;47.984;7.668;2023-04-25T15:28:47;1.50;;;1.50;;